Time;durP1;ratioP1;P1;durP2;ratioP2;P2;SDS_P1;SDS_P2;PMS_P1;PMS_P2;Temp;Humidity;BMP_temperature;BMP_pressure;BME280_temperature;BME280_humidity;BME280_pressure;Samples;Min_cycle;Max_cycle;Signal;HPM_P1;HPM_P2
2022/05/16 00:01:37;;;;;;;4.33;2.33;;;;;;;;;;7383531;19;20135;-79
2022/05/16 00:04:03;;;;;;;3.93;2.50;;;;;;;;;;7379165;19;20132;-78
2022/05/16 00:06:29;;;;;;;3.53;2.37;;;;;;;;;;7386834;19;20200;-80
2022/05/16 00:08:55;;;;;;;2.57;2.37;;;;;;;;;;7390102;19;20121;-81
2022/05/16 00:11:21;;;;;;;3.47;2.23;;;;;;;;;;7389448;19;20156;-81
2022/05/16 00:13:47;;;;;;;3.40;2.37;;;;;;;;;;7382816;19;20121;-80
2022/05/16 00:16:14;;;;;;;7.17;2.37;;;;;;;;;;7379206;19;20187;-78
2022/05/16 00:18:39;;;;;;;3.17;2.43;;;;;;;;;;7389386;19;20489;-78
2022/05/16 00:21:05;;;;;;;3.77;2.70;;;;;;;;;;7387720;19;20113;-79
2022/05/16 00:23:31;;;;;;;3.00;2.53;;;;;;;;;;7385650;19;20140;-80
2022/05/16 00:25:58;;;;;;;2.43;2.20;;;;;;;;;;7387148;19;20156;-78
2022/05/16 00:28:23;;;;;;;2.53;2.33;;;;;;;;;;7388419;19;20557;-79
2022/05/16 00:30:50;;;;;;;2.93;2.33;;;;;;;;;;7370642;19;21001;-78
2022/05/16 00:33:16;;;;;;;3.40;2.50;;;;;;;;;;7390086;19;20480;-78
2022/05/16 00:35:42;;;;;;;3.30;2.30;;;;;;;;;;7384944;19;20174;-78
2022/05/16 00:38:08;;;;;;;5.93;2.60;;;;;;;;;;7388806;19;20220;-78
2022/05/16 00:40:34;;;;;;;2.93;2.37;;;;;;;;;;7386576;19;20117;-78
2022/05/16 00:43:05;;;;;;;2.80;2.43;;;;;;;;;;7384156;19;20121;-78
2022/05/16 00:45:31;;;;;;;2.90;2.63;;;;;;;;;;7378358;19;20248;-79
2022/05/16 00:47:57;;;;;;;3.63;2.70;;;;;;;;;;7384462;19;20125;-79
2022/05/16 00:50:23;;;;;;;3.33;2.70;;;;;;;;;;7375899;19;20144;-79
2022/05/16 00:52:51;;;;;;;3.67;2.83;;;;;;;;;;7381465;19;20605;-77
2022/05/16 00:55:19;;;;;;;4.40;2.40;;;;;;;;;;7390725;19;20192;-77
2022/05/16 00:57:47;;;;;;;4.13;2.27;;;;;;;;;;7404914;19;20155;-79
2022/05/16 01:00:14;;;;;;;4.20;2.57;;;;;;;;;;7398930;19;20129;-79
2022/05/16 01:05:27;;;;;;;3.73;2.40;;;;;;;;;;7397213;19;20649;-78
2022/05/16 01:07:57;;;;;;;4.73;3.17;;;;;;;;;;7386380;19;20149;-79
2022/05/16 01:10:23;;;;;;;4.50;2.60;;;;;;;;;;7386209;19;20140;-78
2022/05/16 01:12:50;;;;;;;3.67;2.57;;;;;;;;;;7407291;19;20125;-79
2022/05/16 01:15:26;;;;;;;3.73;2.87;;;;;;;;;;7404059;19;20149;-79
2022/05/16 01:17:52;;;;;;;3.17;2.40;;;;;;;;;;7416245;19;20156;-80
2022/05/16 01:20:18;;;;;;;3.43;2.80;;;;;;;;;;7399784;19;20196;-79
2022/05/16 01:22:47;;;;;;;3.17;2.87;;;;;;;;;;7392090;19;20126;-78
2022/05/16 01:25:16;;;;;;;2.70;2.50;;;;;;;;;;7381059;19;20257;-79
2022/05/16 01:27:53;;;;;;;3.03;2.60;;;;;;;;;;7378793;19;20208;-79
2022/05/16 01:30:22;;;;;;;3.20;2.40;;;;;;;;;;7378492;19;20164;-79
2022/05/16 01:32:48;;;;;;;3.30;2.50;;;;;;;;;;7379541;19;20148;-79
2022/05/16 01:35:17;;;;;;;3.23;2.50;;;;;;;;;;7385364;19;20218;-79
2022/05/16 01:40:28;;;;;;;3.27;2.67;;;;;;;;;;7385715;19;20155;-81
2022/05/16 01:42:54;;;;;;;3.50;2.23;;;;;;;;;;7381384;19;20144;-79
2022/05/16 01:45:20;;;;;;;4.07;2.70;;;;;;;;;;7383129;19;20187;-79
2022/05/16 01:47:46;;;;;;;3.47;2.60;;;;;;;;;;7385167;19;20270;-80
2022/05/16 01:50:12;;;;;;;3.37;2.77;;;;;;;;;;7394072;19;20177;-79
2022/05/16 01:52:38;;;;;;;5.57;2.90;;;;;;;;;;7390807;19;20693;-79
2022/05/16 01:55:05;;;;;;;4.23;2.50;;;;;;;;;;7391787;19;20149;-79
2022/05/16 01:57:31;;;;;;;3.17;2.50;;;;;;;;;;7390693;19;20220;-79
2022/05/16 01:59:56;;;;;;;4.40;2.70;;;;;;;;;;7385016;19;20473;-80
2022/05/16 02:02:22;;;;;;;4.97;2.90;;;;;;;;;;7386833;19;20587;-79
2022/05/16 02:04:48;;;;;;;3.60;2.57;;;;;;;;;;7390999;19;20177;-79
2022/05/16 02:07:14;;;;;;;4.13;2.83;;;;;;;;;;7393893;19;20224;-79
2022/05/16 02:09:40;;;;;;;2.90;2.70;;;;;;;;;;7391883;19;20133;-79
2022/05/16 02:12:07;;;;;;;3.63;2.53;;;;;;;;;;7386381;19;20478;-79
2022/05/16 02:14:33;;;;;;;2.87;2.63;;;;;;;;;;7388704;19;20491;-79
2022/05/16 02:16:59;;;;;;;3.03;2.77;;;;;;;;;;7390237;19;20156;-78
2022/05/16 02:19:25;;;;;;;2.83;2.60;;;;;;;;;;7393710;19;20647;-80
2022/05/16 02:24:38;;;;;;;5.53;3.37;;;;;;;;;;7389338;19;20161;-80
2022/05/16 02:27:05;;;;;;;3.93;2.80;;;;;;;;;;7391949;19;20128;-80
2022/05/16 02:29:31;;;;;;;3.60;2.50;;;;;;;;;;7392850;19;20141;-80
2022/05/16 02:31:57;;;;;;;3.20;2.90;;;;;;;;;;7388114;19;20132;-79
2022/05/16 02:34:23;;;;;;;4.80;2.87;;;;;;;;;;7390534;19;20130;-79
2022/05/16 02:36:50;;;;;;;4.17;2.70;;;;;;;;;;7397627;19;20188;-82
2022/05/16 02:39:17;;;;;;;4.70;3.00;;;;;;;;;;7397918;19;20165;-79
2022/05/16 02:41:43;;;;;;;4.00;3.00;;;;;;;;;;7409061;19;20152;-82
2022/05/16 02:44:09;;;;;;;5.47;3.00;;;;;;;;;;7401583;19;20395;-81
2022/05/16 02:46:35;;;;;;;4.50;3.00;;;;;;;;;;7407374;19;20145;-80
2022/05/16 02:49:01;;;;;;;3.30;2.70;;;;;;;;;;7403275;19;20145;-82
2022/05/16 02:51:27;;;;;;;3.33;3.03;;;;;;;;;;7397400;19;20137;-79
2022/05/16 02:53:53;;;;;;;5.07;3.20;;;;;;;;;;7396800;19;20133;-78
2022/05/16 02:56:19;;;;;;;5.07;3.23;;;;;;;;;;7386407;19;20191;-78
2022/05/16 02:58:45;;;;;;;3.43;3.13;;;;;;;;;;7386576;19;20608;-81
2022/05/16 03:01:12;;;;;;;7.17;3.13;;;;;;;;;;7393164;19;20121;-81
2022/05/16 03:03:39;;;;;;;5.60;3.17;;;;;;;;;;7387606;19;20137;-79
2022/05/16 03:06:05;;;;;;;6.07;3.50;;;;;;;;;;7388215;19;20180;-79
2022/05/16 03:08:31;;;;;;;5.10;3.30;;;;;;;;;;7418857;19;20129;-78
2022/05/16 03:10:58;;;;;;;5.27;3.10;;;;;;;;;;7425077;19;20158;-81
2022/05/16 03:13:24;;;;;;;3.30;3.00;;;;;;;;;;7412768;19;20121;-79
2022/05/16 03:15:50;;;;;;;4.60;3.17;;;;;;;;;;7423858;19;20216;-80
2022/05/16 03:18:17;;;;;;;3.93;3.07;;;;;;;;;;7411519;19;20133;-77
2022/05/16 03:20:43;;;;;;;4.20;3.60;;;;;;;;;;7393538;19;20592;-79
2022/05/16 03:23:09;;;;;;;6.07;3.70;;;;;;;;;;7387223;19;20596;-79
2022/05/16 03:25:35;;;;;;;3.60;3.30;;;;;;;;;;7386695;19;20632;-79
2022/05/16 03:28:01;;;;;;;3.37;3.07;;;;;;;;;;7388641;19;20185;-80
2022/05/16 03:30:28;;;;;;;5.43;3.63;;;;;;;;;;7388750;19;20216;-81
2022/05/16 03:32:54;;;;;;;6.37;3.53;;;;;;;;;;7388990;19;20196;-81
2022/05/16 03:35:21;;;;;;;4.87;3.30;;;;;;;;;;7389113;19;20610;-80
2022/05/16 03:37:47;;;;;;;4.73;3.60;;;;;;;;;;7392350;19;20153;-79
2022/05/16 03:42:58;;;;;;;4.77;3.50;;;;;;;;;;7389107;19;20208;-80
2022/05/16 03:45:24;;;;;;;4.43;3.43;;;;;;;;;;7389168;19;20628;-81
2022/05/16 03:47:50;;;;;;;4.63;3.57;;;;;;;;;;7389606;19;20144;-81
2022/05/16 03:50:16;;;;;;;4.10;3.53;;;;;;;;;;7390220;19;20148;-81
2022/05/16 03:52:43;;;;;;;5.97;3.73;;;;;;;;;;7391839;19;20129;-83
2022/05/16 03:55:12;;;;;;;4.50;3.30;;;;;;;;;;7390612;19;20187;-81
2022/05/16 03:57:38;;;;;;;4.30;3.50;;;;;;;;;;7393609;19;20142;-80
2022/05/16 04:00:09;;;;;;;6.20;4.00;;;;;;;;;;7382000;19;20818;-78
2022/05/16 04:02:35;;;;;;;5.50;3.97;;;;;;;;;;7379340;19;20220;-81
2022/05/16 04:05:01;;;;;;;5.80;3.70;;;;;;;;;;7393265;19;20180;-81
2022/05/16 04:07:27;;;;;;;6.60;3.90;;;;;;;;;;7391432;19;20128;-81
2022/05/16 04:09:53;;;;;;;5.03;3.90;;;;;;;;;;7395388;19;20156;-81
2022/05/16 04:12:20;;;;;;;4.20;3.60;;;;;;;;;;7395949;19;20133;-82
2022/05/16 04:14:46;;;;;;;5.97;3.90;;;;;;;;;;7380266;19;20179;-81
2022/05/16 04:17:12;;;;;;;11.63;3.93;;;;;;;;;;7383913;19;20125;-79
2022/05/16 04:19:38;;;;;;;7.47;4.13;;;;;;;;;;7387656;19;20627;-80
2022/05/16 04:22:04;;;;;;;4.57;4.10;;;;;;;;;;7385832;19;20212;-81
2022/05/16 04:24:30;;;;;;;6.97;4.00;;;;;;;;;;7383695;19;20754;-79
2022/05/16 04:26:56;;;;;;;5.67;4.30;;;;;;;;;;7387160;19;20152;-81
2022/05/16 04:29:22;;;;;;;6.00;4.00;;;;;;;;;;7388863;19;20245;-79
2022/05/16 04:31:50;;;;;;;5.10;4.60;;;;;;;;;;7374185;19;20233;-80
2022/05/16 04:34:16;;;;;;;6.20;4.37;;;;;;;;;;7390708;19;20181;-79
2022/05/16 04:36:42;;;;;;;6.27;4.13;;;;;;;;;;7383278;19;20692;-79
2022/05/16 04:39:08;;;;;;;4.27;3.87;;;;;;;;;;7387608;19;20133;-80
2022/05/16 04:44:19;;;;;;;5.23;4.23;;;;;;;;;;7392205;19;20144;-79
2022/05/16 04:46:45;;;;;;;5.43;3.80;;;;;;;;;;7385636;19;20117;-80
2022/05/16 04:49:11;;;;;;;5.40;4.23;;;;;;;;;;7389676;19;20576;-79
2022/05/16 04:51:37;;;;;;;7.33;3.53;;;;;;;;;;7380015;19;20124;-80
2022/05/16 04:54:03;;;;;;;5.63;4.40;;;;;;;;;;7382623;19;20128;-78
2022/05/16 04:56:29;;;;;;;5.83;3.93;;;;;;;;;;7390692;19;20159;-80
2022/05/16 04:58:55;;;;;;;6.53;4.00;;;;;;;;;;7384483;19;20148;-79
2022/05/16 05:01:22;;;;;;;4.53;3.93;;;;;;;;;;7377904;19;20155;-78
2022/05/16 05:03:48;;;;;;;6.73;4.07;;;;;;;;;;7380643;19;20143;-79
2022/05/16 05:06:14;;;;;;;4.30;3.90;;;;;;;;;;7375990;19;20172;-80
2022/05/16 05:08:40;;;;;;;6.77;4.03;;;;;;;;;;7384324;19;20117;-80
2022/05/16 05:16:35;;;;;;;6.20;4.33;;;;;;;;;;7386872;19;20217;-79
2022/05/16 05:19:01;;;;;;;4.60;3.93;;;;;;;;;;7386392;19;20158;-80
2022/05/16 05:21:27;;;;;;;5.03;3.70;;;;;;;;;;7384586;19;20615;-78
2022/05/16 05:23:55;;;;;;;8.10;4.67;;;;;;;;;;7377282;19;20575;-78
2022/05/16 05:26:21;;;;;;;4.57;3.83;;;;;;;;;;7374569;19;20630;-79
2022/05/16 05:28:47;;;;;;;4.57;4.00;;;;;;;;;;7380600;19;20151;-79
2022/05/16 05:31:14;;;;;;;6.40;4.10;;;;;;;;;;7381013;19;20590;-79
2022/05/16 05:33:40;;;;;;;7.03;4.37;;;;;;;;;;7374164;19;20161;-79
2022/05/16 05:36:08;;;;;;;7.97;4.70;;;;;;;;;;7388565;19;20156;-79
2022/05/16 05:38:34;;;;;;;6.20;4.77;;;;;;;;;;7392961;19;20145;-78
2022/05/16 05:40:59;;;;;;;5.17;4.23;;;;;;;;;;7381212;19;20548;-79
2022/05/16 05:43:26;;;;;;;5.27;4.53;;;;;;;;;;7395523;19;20137;-79
2022/05/16 05:45:52;;;;;;;4.90;4.40;;;;;;;;;;7395588;19;20630;-79
2022/05/16 05:48:18;;;;;;;5.60;4.90;;;;;;;;;;7396817;19;20168;-79
2022/05/16 05:50:44;;;;;;;5.23;4.30;;;;;;;;;;7386124;19;20508;-78
2022/05/16 05:53:10;;;;;;;5.90;4.53;;;;;;;;;;7378222;19;20141;-78
2022/05/16 05:55:35;;;;;;;4.57;3.73;;;;;;;;;;7392686;19;20499;-78
2022/05/16 05:58:01;;;;;;;5.45;4.05;;;;;;;;;;7395115;19;20192;-78
2022/05/16 06:00:27;;;;;;;7.05;3.72;;;;;;;;;;7385670;19;20140;-79
2022/05/16 06:02:54;;;;;;;10.02;3.53;;;;;;;;;;7388818;19;20487;-79
2022/05/16 06:05:21;;;;;;;5.57;3.15;;;;;;;;;;7393879;19;20180;-79
2022/05/16 06:10:15;;;;;;;4.80;3.80;;;;;;;;;;7397556;19;20137;-79
2022/05/16 06:12:42;;;;;;;6.20;4.40;;;;;;;;;;7391175;19;20148;-80
2022/05/16 18:09:49;;;;;;;3.92;2.17;;;;;;;;;;7397836;19;20656;-86
2022/05/16 18:15:01;;;;;;;4.63;2.28;;;;;;;;;;7404940;19;20147;-89
2022/05/16 18:17:27;;;;;;;5.97;1.95;;;;;;;;;;7400638;19;20168;-85
2022/05/16 18:19:54;;;;;;;6.03;2.58;;;;;;;;;;7404520;19;20153;-84
2022/05/16 18:22:21;;;;;;;6.95;2.42;;;;;;;;;;7403369;19;20636;-85
2022/05/16 18:24:48;;;;;;;5.25;2.38;;;;;;;;;;7404141;19;20130;-86
2022/05/16 18:27:14;;;;;;;4.47;2.03;;;;;;;;;;7401266;19;20708;-85
2022/05/16 18:29:40;;;;;;;3.35;2.03;;;;;;;;;;7403739;19;20171;-88
2022/05/16 18:32:07;;;;;;;5.85;2.42;;;;;;;;;;7402245;19;20623;-85
2022/05/16 18:34:33;;;;;;;6.32;2.30;;;;;;;;;;7405251;19;20206;-86
2022/05/16 18:36:59;;;;;;;5.50;2.20;;;;;;;;;;7404588;19;20157;-86
2022/05/16 18:39:26;;;;;;;5.57;2.88;;;;;;;;;;7401448;19;20156;-87
2022/05/16 18:52:57;;;;;;;6.75;2.67;;;;;;;;;;7399599;19;20637;-83
2022/05/16 18:55:24;;;;;;;3.85;2.25;;;;;;;;;;7398887;19;20157;-87
2022/05/16 18:57:50;;;;;;;4.80;2.53;;;;;;;;;;7401585;19;20171;-85
2022/05/16 19:00:17;;;;;;;2.90;2.50;;;;;;;;;;7403982;19;20146;-83
2022/05/16 19:02:44;;;;;;;4.35;2.63;;;;;;;;;;7400808;19;20136;-83
2022/05/16 19:05:12;;;;;;;6.00;3.10;;;;;;;;;;7400984;19;20160;-85
2022/05/16 19:07:38;;;;;;;5.40;2.17;;;;;;;;;;7399391;19;20177;-83
2022/05/16 19:10:06;;;;;;;5.07;2.33;;;;;;;;;;7399475;19;20197;-86
2022/05/16 19:12:33;;;;;;;8.73;2.65;;;;;;;;;;7402157;19;20140;-84
2022/05/16 19:14:59;;;;;;;5.65;2.28;;;;;;;;;;7403721;19;20152;-85
2022/05/16 19:17:26;;;;;;;4.57;2.40;;;;;;;;;;7400625;19;20173;-81
2022/05/16 19:19:53;;;;;;;4.25;2.25;;;;;;;;;;7400530;19;20511;-84
2022/05/16 19:22:19;;;;;;;5.82;2.10;;;;;;;;;;7400946;19;20152;-83
2022/05/16 19:24:45;;;;;;;5.60;2.70;;;;;;;;;;7400208;19;20232;-86
2022/05/16 19:27:11;;;;;;;5.90;2.83;;;;;;;;;;7395093;19;20182;-82
2022/05/16 19:32:22;;;;;;;5.97;4.03;;;;;;;;;;7399901;19;20535;-85
2022/05/16 19:34:53;;;;;;;12.20;6.80;;;;;;;;;;7396895;19;20476;-82
2022/05/16 19:37:24;;;;;;;8.82;4.40;;;;;;;;;;7391155;19;20177;-83
2022/05/16 19:39:50;;;;;;;6.68;2.97;;;;;;;;;;7401795;19;20140;-82
2022/05/16 19:42:21;;;;;;;3.85;2.63;;;;;;;;;;7395973;19;20148;-83
2022/05/16 19:44:48;;;;;;;6.90;2.28;;;;;;;;;;7396150;19;20164;-84
2022/05/16 19:47:18;;;;;;;7.28;3.50;;;;;;;;;;7397211;19;20172;-82
2022/05/16 19:49:44;;;;;;;5.03;2.90;;;;;;;;;;7396670;19;20152;-82
2022/05/16 19:52:10;;;;;;;5.90;2.90;;;;;;;;;;7398065;19;20151;-90
2022/05/16 19:54:37;;;;;;;5.25;2.92;;;;;;;;;;7399335;19;20136;-82
2022/05/16 19:57:09;;;;;;;6.55;2.55;;;;;;;;;;7397722;19;20176;-83
2022/05/16 19:59:35;;;;;;;6.35;2.88;;;;;;;;;;7400682;19;20144;-83
2022/05/16 20:02:01;;;;;;;3.22;2.78;;;;;;;;;;7401499;19;20131;-85
2022/05/16 20:04:28;;;;;;;4.80;2.28;;;;;;;;;;7401930;19;20175;-85
2022/05/16 20:06:54;;;;;;;7.00;2.67;;;;;;;;;;7396619;19;20818;-84
2022/05/16 20:09:20;;;;;;;4.57;2.70;;;;;;;;;;7398508;19;20149;-84
2022/05/16 20:11:47;;;;;;;6.18;2.80;;;;;;;;;;7397202;19;20144;-85
2022/05/16 20:14:15;;;;;;;6.03;2.70;;;;;;;;;;7401142;19;20156;-83
2022/05/16 20:16:41;;;;;;;4.15;2.53;;;;;;;;;;7403205;19;20149;-85
2022/05/16 20:19:13;;;;;;;3.83;2.45;;;;;;;;;;7405583;19;20668;-83
2022/05/16 20:21:40;;;;;;;2.80;2.28;;;;;;;;;;7398185;19;20165;-82
2022/05/16 20:26:52;;;;;;;6.18;2.65;;;;;;;;;;7405499;19;20169;-85
2022/05/16 20:29:18;;;;;;;4.25;2.63;;;;;;;;;;7402935;19;20163;-83
2022/05/16 20:31:44;;;;;;;5.03;2.80;;;;;;;;;;7402983;19;20160;-83
2022/05/16 20:34:10;;;;;;;5.35;3.25;;;;;;;;;;7401323;19;21137;-84
2022/05/16 20:36:37;;;;;;;8.55;3.63;;;;;;;;;;7396737;19;20172;-88
2022/05/16 20:39:04;;;;;;;5.15;3.17;;;;;;;;;;7400181;19;20140;-86
2022/05/16 20:41:30;;;;;;;5.68;3.63;;;;;;;;;;7401559;19;20147;-83
2022/05/16 20:43:56;;;;;;;5.25;3.65;;;;;;;;;;7404364;19;20137;-85
2022/05/16 20:46:23;;;;;;;6.47;3.88;;;;;;;;;;7402594;19;20180;-83
2022/05/16 20:48:49;;;;;;;4.47;3.35;;;;;;;;;;7404955;19;20148;-86
2022/05/16 20:51:15;;;;;;;7.15;3.65;;;;;;;;;;7399345;19;20148;-84
2022/05/16 20:53:41;;;;;;;3.83;3.10;;;;;;;;;;7401407;19;20156;-85
2022/05/16 20:56:07;;;;;;;4.88;3.80;;;;;;;;;;7395385;19;20206;-86
2022/05/16 20:58:34;;;;;;;6.75;3.70;;;;;;;;;;7400661;19;20132;-86
2022/05/16 21:01:01;;;;;;;4.47;2.92;;;;;;;;;;7400019;19;20645;-83
2022/05/16 21:03:27;;;;;;;7.53;3.90;;;;;;;;;;7402492;19;20121;-84
2022/05/16 21:05:53;;;;;;;10.13;3.40;;;;;;;;;;7400701;19;20129;-87
2022/05/16 21:08:19;;;;;;;7.35;3.42;;;;;;;;;;7403543;19;20172;-82
2022/05/16 21:10:46;;;;;;;7.15;3.55;;;;;;;;;;7402884;19;20736;-86
2022/05/16 21:13:14;;;;;;;5.30;3.67;;;;;;;;;;7401330;19;20152;-88
2022/05/16 21:15:40;;;;;;;6.22;3.15;;;;;;;;;;7398479;19;20155;-88
2022/05/16 21:18:10;;;;;;;5.88;3.25;;;;;;;;;;7400947;19;20152;-87
2022/05/16 21:20:36;;;;;;;6.38;3.22;;;;;;;;;;7400040;19;20564;-87
2022/05/16 21:23:02;;;;;;;4.97;3.45;;;;;;;;;;7397420;19;20164;-86
2022/05/16 21:25:28;;;;;;;11.18;3.95;;;;;;;;;;7405395;19;20180;-88
2022/05/16 21:27:54;;;;;;;4.18;3.20;;;;;;;;;;7406608;19;20168;-88
2022/05/16 21:30:22;;;;;;;6.68;3.63;;;;;;;;;;7410178;19;20153;-90
2022/05/16 21:32:48;;;;;;;5.43;3.50;;;;;;;;;;7412888;19;20152;-88
2022/05/16 21:35:20;;;;;;;4.80;3.65;;;;;;;;;;7417883;19;20132;-85
2022/05/16 21:37:46;;;;;;;5.22;3.83;;;;;;;;;;7407631;19;20155;-84
2022/05/16 21:40:14;;;;;;;4.37;3.20;;;;;;;;;;7405255;19;20197;-88
2022/05/16 21:42:41;;;;;;;5.63;3.40;;;;;;;;;;7404255;19;20221;-86
2022/05/16 21:45:20;;;;;;;7.30;3.70;;;;;;;;;;7400923;19;20149;-88
2022/05/16 21:47:47;;;;;;;7.60;3.37;;;;;;;;;;7401855;19;20171;-85
2022/05/16 21:50:13;;;;;;;6.63;3.53;;;;;;;;;;7407719;19;20165;-89
2022/05/16 21:52:39;;;;;;;7.65;3.88;;;;;;;;;;7411838;19;20153;-89
2022/05/16 21:55:06;;;;;;;5.18;3.33;;;;;;;;;;7413803;19;20137;-86
2022/05/16 21:57:32;;;;;;;6.23;3.40;;;;;;;;;;7410684;19;20212;-87
2022/05/16 21:59:58;;;;;;;5.60;3.33;;;;;;;;;;7413448;19;20152;-87
2022/05/16 22:02:24;;;;;;;6.03;4.13;;;;;;;;;;7409775;19;20148;-84
2022/05/16 22:04:50;;;;;;;4.90;3.47;;;;;;;;;;7411805;19;20165;-83
2022/05/16 22:07:17;;;;;;;5.90;3.67;;;;;;;;;;7409250;19;20173;-85
2022/05/16 22:09:43;;;;;;;5.87;3.80;;;;;;;;;;7404965;19;20178;-89
2022/05/16 22:12:09;;;;;;;7.85;3.92;;;;;;;;;;7410110;19;20145;-86
2022/05/16 22:14:35;;;;;;;6.20;3.72;;;;;;;;;;7412655;19;20129;-85
2022/05/16 22:17:01;;;;;;;4.67;3.30;;;;;;;;;;7409351;19;20248;-87
2022/05/16 22:19:27;;;;;;;5.20;3.73;;;;;;;;;;7413517;19;20568;-88
2022/05/16 22:21:53;;;;;;;6.40;3.30;;;;;;;;;;7411994;19;20154;-85
2022/05/16 22:24:19;;;;;;;5.50;3.40;;;;;;;;;;7411252;19;20160;-84
2022/05/16 22:26:46;;;;;;;8.53;3.90;;;;;;;;;;7406736;19;20168;-84
2022/05/16 22:29:12;;;;;;;6.23;3.40;;;;;;;;;;7411687;19;20137;-86
2022/05/16 22:31:39;;;;;;;7.27;3.97;;;;;;;;;;7409326;19;20176;-89
2022/05/16 22:34:05;;;;;;;6.10;4.10;;;;;;;;;;7408300;19;20149;-85
2022/05/16 22:36:32;;;;;;;4.60;3.13;;;;;;;;;;7408157;19;20183;-89
2022/05/16 22:38:58;;;;;;;4.57;3.20;;;;;;;;;;7411565;19;20153;-85
2022/05/16 22:41:24;;;;;;;5.53;3.57;;;;;;;;;;7410397;19;20176;-88
2022/05/16 22:43:50;;;;;;;4.93;3.87;;;;;;;;;;7410480;19;20208;-88
2022/05/16 22:46:16;;;;;;;8.40;3.97;;;;;;;;;;7410551;19;20200;-85
2022/05/16 22:48:42;;;;;;;7.40;3.90;;;;;;;;;;7414727;19;20137;-86
2022/05/16 22:51:08;;;;;;;5.80;4.00;;;;;;;;;;7414555;19;20606;-85
2022/05/16 22:53:34;;;;;;;6.63;3.97;;;;;;;;;;7415326;19;20156;-88
2022/05/16 22:56:02;;;;;;;7.17;3.80;;;;;;;;;;7412209;19;20175;-85
2022/05/16 22:58:28;;;;;;;6.77;4.20;;;;;;;;;;7412265;19;20141;-88
2022/05/16 23:00:54;;;;;;;5.60;3.73;;;;;;;;;;7414013;19;20151;-88
2022/05/16 23:03:32;;;;;;;6.60;4.00;;;;;;;;;;7413805;19;20157;-85
2022/05/16 23:05:59;;;;;;;7.17;4.10;;;;;;;;;;7414599;19;20152;-86
2022/05/16 23:08:25;;;;;;;6.33;3.70;;;;;;;;;;7424868;19;20149;-89
2022/05/16 23:10:51;;;;;;;5.73;3.90;;;;;;;;;;7431270;19;20160;-91
2022/05/16 23:13:17;;;;;;;7.00;3.90;;;;;;;;;;7426703;19;20152;-91
2022/05/16 23:15:44;;;;;;;5.37;3.77;;;;;;;;;;7428543;19;20181;-91
2022/05/16 23:18:11;;;;;;;5.47;4.07;;;;;;;;;;7429874;19;20133;-91
2022/05/16 23:20:37;;;;;;;8.43;3.90;;;;;;;;;;7433135;19;20118;-90
2022/05/16 23:23:03;;;;;;;11.43;4.30;;;;;;;;;;7427086;19;20525;-92
2022/05/16 23:25:29;;;;;;;5.80;4.13;;;;;;;;;;7427690;19;20125;-91
2022/05/16 23:27:55;;;;;;;6.10;4.10;;;;;;;;;;7426584;19;20161;-89
2022/05/16 23:30:21;;;;;;;5.13;3.80;;;;;;;;;;7430315;19;20125;-90
2022/05/16 23:32:48;;;;;;;7.70;4.03;;;;;;;;;;7424535;19;20148;-86
2022/05/16 23:35:14;;;;;;;7.47;4.27;;;;;;;;;;7393381;19;20148;-85
2022/05/16 23:37:40;;;;;;;8.63;4.03;;;;;;;;;;7396957;19;20529;-87
2022/05/16 23:40:07;;;;;;;6.93;3.90;;;;;;;;;;7397222;19;20156;-87
2022/05/16 23:42:34;;;;;;;5.07;4.30;;;;;;;;;;7400748;19;20667;-87
2022/05/16 23:45:00;;;;;;;6.27;4.60;;;;;;;;;;7403049;19;20165;-88
2022/05/16 23:47:26;;;;;;;5.13;4.30;;;;;;;;;;7407127;19;20207;-87
2022/05/16 23:49:52;;;;;;;9.70;3.57;;;;;;;;;;7404468;19;20180;-87
2022/05/16 23:52:18;;;;;;;7.53;4.23;;;;;;;;;;7402787;19;20145;-87
2022/05/16 23:54:44;;;;;;;6.00;4.30;;;;;;;;;;7405575;19;20138;-85
2022/05/16 23:57:10;;;;;;;6.10;4.33;;;;;;;;;;7405776;19;20184;-90
2022/05/16 23:59:36;;;;;;;5.17;3.80;;;;;;;;;;7407510;19;20152;-86
